sensor_id;sensor_type;location;lat;lon;timestamp;temperature;humidity
19799;DHT22;10059;59.850;10.454;2023-05-10T00:01:35;9.00;99.90
19799;DHT22;10059;59.850;10.454;2023-05-10T00:04:01;8.80;99.90
19799;DHT22;10059;59.850;10.454;2023-05-10T00:06:28;8.70;99.90
19799;DHT22;10059;59.850;10.454;2023-05-10T00:08:57;8.70;99.90
19799;DHT22;10059;59.850;10.454;2023-05-10T00:11:23;8.90;99.90
19799;DHT22;10059;59.850;10.454;2023-05-10T00:13:50;9.10;99.90
19799;DHT22;10059;59.850;10.454;2023-05-10T00:16:17;8.90;99.90
19799;DHT22;10059;59.850;10.454;2023-05-10T00:18:44;8.90;99.90
19799;DHT22;10059;59.850;10.454;2023-05-10T00:21:11;8.60;99.90
19799;DHT22;10059;59.850;10.454;2023-05-10T00:23:38;8.60;99.90
19799;DHT22;10059;59.850;10.454;2023-05-10T00:26:07;8.60;99.90
19799;DHT22;10059;59.850;10.454;2023-05-10T00:28:33;8.60;99.90
19799;DHT22;10059;59.850;10.454;2023-05-10T00:31:00;8.40;99.90
19799;DHT22;10059;59.850;10.454;2023-05-10T00:33:27;8.30;99.90
19799;DHT22;10059;59.850;10.454;2023-05-10T00:35:54;8.40;99.90
19799;DHT22;10059;59.850;10.454;2023-05-10T00:38:21;8.50;99.90
19799;DHT22;10059;59.850;10.454;2023-05-10T00:40:47;8.30;99.90
19799;DHT22;10059;59.850;10.454;2023-05-10T00:43:16;8.40;99.90
19799;DHT22;10059;59.850;10.454;2023-05-10T00:45:43;8.30;99.90
19799;DHT22;10059;59.850;10.454;2023-05-10T00:48:10;8.40;99.90
19799;DHT22;10059;59.850;10.454;2023-05-10T00:50:37;8.40;99.90
19799;DHT22;10059;59.850;10.454;2023-05-10T00:53:05;8.50;99.90
19799;DHT22;10059;59.850;10.454;2023-05-10T00:55:32;8.70;99.90
19799;DHT22;10059;59.850;10.454;2023-05-10T00:57:59;8.70;99.90
19799;DHT22;10059;59.850;10.454;2023-05-10T01:00:28;8.50;99.90
19799;DHT22;10059;59.850;10.454;2023-05-10T01:02:55;8.60;99.90
19799;DHT22;10059;59.850;10.454;2023-05-10T01:05:22;8.70;99.90
19799;DHT22;10059;59.850;10.454;2023-05-10T01:07:49;8.80;99.90
19799;DHT22;10059;59.850;10.454;2023-05-10T01:10:15;8.80;99.90
19799;DHT22;10059;59.850;10.454;2023-05-10T01:12:43;8.80;99.90
19799;DHT22;10059;59.850;10.454;2023-05-10T01:15:12;8.70;99.90
19799;DHT22;10059;59.850;10.454;2023-05-10T01:17:42;8.70;99.90
19799;DHT22;10059;59.850;10.454;2023-05-10T01:20:10;8.80;99.90
19799;DHT22;10059;59.850;10.454;2023-05-10T01:23:05;8.80;99.90
19799;DHT22;10059;59.850;10.454;2023-05-10T01:28:58;8.90;99.90
19799;DHT22;10059;59.850;10.454;2023-05-10T01:32:04;8.90;99.90
19799;DHT22;10059;59.850;10.454;2023-05-10T01:34:35;8.90;99.90
19799;DHT22;10059;59.850;10.454;2023-05-10T01:37:09;8.70;99.90
19799;DHT22;10059;59.850;10.454;2023-05-10T01:39:44;8.80;99.90
19799;DHT22;10059;59.850;10.454;2023-05-10T01:42:17;8.80;99.90
19799;DHT22;10059;59.850;10.454;2023-05-10T01:44:52;9.00;99.90
19799;DHT22;10059;59.850;10.454;2023-05-10T01:47:38;9.10;99.90
19799;DHT22;10059;59.850;10.454;2023-05-10T01:50:10;9.10;99.90
19799;DHT22;10059;59.850;10.454;2023-05-10T01:52:42;9.20;99.90
19799;DHT22;10059;59.850;10.454;2023-05-10T01:55:15;9.20;99.90
19799;DHT22;10059;59.850;10.454;2023-05-10T01:57:44;9.10;99.90
19799;DHT22;10059;59.850;10.454;2023-05-10T02:00:13;9.10;99.90
19799;DHT22;10059;59.850;10.454;2023-05-10T02:02:45;9.10;99.90
19799;DHT22;10059;59.850;10.454;2023-05-10T02:05:14;9.10;99.90
19799;DHT22;10059;59.850;10.454;2023-05-10T02:07:42;9.00;99.90
19799;DHT22;10059;59.850;10.454;2023-05-10T02:10:10;9.00;99.90
19799;DHT22;10059;59.850;10.454;2023-05-10T02:12:41;9.00;99.90
19799;DHT22;10059;59.850;10.454;2023-05-10T02:15:09;8.90;99.90
19799;DHT22;10059;59.850;10.454;2023-05-10T02:17:37;9.00;99.90
19799;DHT22;10059;59.850;10.454;2023-05-10T02:20:08;8.80;99.90
19799;DHT22;10059;59.850;10.454;2023-05-10T02:22:36;8.80;99.90
19799;DHT22;10059;59.850;10.454;2023-05-10T02:25:05;8.80;99.90
19799;DHT22;10059;59.850;10.454;2023-05-10T02:27:33;8.70;99.90
19799;DHT22;10059;59.850;10.454;2023-05-10T02:30:01;8.70;99.90
19799;DHT22;10059;59.850;10.454;2023-05-10T02:32:29;8.70;99.90
19799;DHT22;10059;59.850;10.454;2023-05-10T02:34:57;8.70;99.90
19799;DHT22;10059;59.850;10.454;2023-05-10T02:37:26;8.70;99.90
19799;DHT22;10059;59.850;10.454;2023-05-10T02:39:55;8.70;99.90
19799;DHT22;10059;59.850;10.454;2023-05-10T02:42:25;8.70;99.90
19799;DHT22;10059;59.850;10.454;2023-05-10T02:44:53;8.70;99.90
19799;DHT22;10059;59.850;10.454;2023-05-10T02:47:21;8.70;99.90
19799;DHT22;10059;59.850;10.454;2023-05-10T02:49:48;8.70;99.90
19799;DHT22;10059;59.850;10.454;2023-05-10T02:52:19;8.70;99.90
19799;DHT22;10059;59.850;10.454;2023-05-10T02:54:53;8.70;99.90
19799;DHT22;10059;59.850;10.454;2023-05-10T02:57:25;8.80;99.90
19799;DHT22;10059;59.850;10.454;2023-05-10T02:59:52;8.80;99.90
19799;DHT22;10059;59.850;10.454;2023-05-10T03:02:20;8.80;99.90
19799;DHT22;10059;59.850;10.454;2023-05-10T03:04:47;8.70;99.90
19799;DHT22;10059;59.850;10.454;2023-05-10T03:07:14;8.70;99.90
19799;DHT22;10059;59.850;10.454;2023-05-10T03:09:42;8.70;99.90
19799;DHT22;10059;59.850;10.454;2023-05-10T03:12:15;8.80;99.90
19799;DHT22;10059;59.850;10.454;2023-05-10T03:14:52;8.80;99.90
19799;DHT22;10059;59.850;10.454;2023-05-10T03:17:23;8.90;99.90
19799;DHT22;10059;59.850;10.454;2023-05-10T03:19:54;9.00;99.90
19799;DHT22;10059;59.850;10.454;2023-05-10T03:22:25;9.00;99.90
19799;DHT22;10059;59.850;10.454;2023-05-10T03:24:55;9.00;99.90
19799;DHT22;10059;59.850;10.454;2023-05-10T03:27:26;9.10;99.90
19799;DHT22;10059;59.850;10.454;2023-05-10T03:29:55;9.10;99.90
19799;DHT22;10059;59.850;10.454;2023-05-10T03:32:22;9.20;99.90
19799;DHT22;10059;59.850;10.454;2023-05-10T03:34:49;9.20;99.90
19799;DHT22;10059;59.850;10.454;2023-05-10T03:37:16;9.20;99.90
19799;DHT22;10059;59.850;10.454;2023-05-10T03:39:43;9.40;99.90
19799;DHT22;10059;59.850;10.454;2023-05-10T03:42:10;9.50;99.90
19799;DHT22;10059;59.850;10.454;2023-05-10T03:44:39;9.40;99.90
19799;DHT22;10059;59.850;10.454;2023-05-10T03:47:05;9.50;99.90
19799;DHT22;10059;59.850;10.454;2023-05-10T03:49:32;9.60;99.90
19799;DHT22;10059;59.850;10.454;2023-05-10T03:51:59;9.60;99.90
19799;DHT22;10059;59.850;10.454;2023-05-10T03:54:26;9.50;99.90
19799;DHT22;10059;59.850;10.454;2023-05-10T03:56:53;9.60;99.90
19799;DHT22;10059;59.850;10.454;2023-05-10T03:59:20;9.70;99.90
19799;DHT22;10059;59.850;10.454;2023-05-10T04:01:48;9.80;99.90
19799;DHT22;10059;59.850;10.454;2023-05-10T04:04:15;9.90;99.90
19799;DHT22;10059;59.850;10.454;2023-05-10T04:06:43;10.00;99.90
19799;DHT22;10059;59.850;10.454;2023-05-10T04:09:10;10.00;99.90
19799;DHT22;10059;59.850;10.454;2023-05-10T04:11:37;10.00;99.90
19799;DHT22;10059;59.850;10.454;2023-05-10T04:14:04;10.00;99.90
19799;DHT22;10059;59.850;10.454;2023-05-10T04:16:31;10.00;99.90
19799;DHT22;10059;59.850;10.454;2023-05-10T04:18:59;10.00;99.90
19799;DHT22;10059;59.850;10.454;2023-05-10T04:21:26;10.10;99.90
19799;DHT22;10059;59.850;10.454;2023-05-10T04:23:53;10.20;99.90
19799;DHT22;10059;59.850;10.454;2023-05-10T04:26:20;10.30;99.90
19799;DHT22;10059;59.850;10.454;2023-05-10T04:28:47;10.40;99.90
19799;DHT22;10059;59.850;10.454;2023-05-10T04:31:14;10.40;99.90
19799;DHT22;10059;59.850;10.454;2023-05-10T04:33:41;10.40;99.90
19799;DHT22;10059;59.850;10.454;2023-05-10T04:36:09;10.50;99.90
19799;DHT22;10059;59.850;10.454;2023-05-10T04:38:36;10.60;99.90
19799;DHT22;10059;59.850;10.454;2023-05-10T04:41:06;10.70;99.90
19799;DHT22;10059;59.850;10.454;2023-05-10T04:43:33;10.80;99.90
19799;DHT22;10059;59.850;10.454;2023-05-10T04:46:00;10.70;99.90
19799;DHT22;10059;59.850;10.454;2023-05-10T04:48:27;10.80;99.90
19799;DHT22;10059;59.850;10.454;2023-05-10T04:50:54;10.80;99.90
19799;DHT22;10059;59.850;10.454;2023-05-10T04:53:22;10.70;99.90
19799;DHT22;10059;59.850;10.454;2023-05-10T04:55:49;10.80;99.90
19799;DHT22;10059;59.850;10.454;2023-05-10T04:58:16;10.80;99.90
19799;DHT22;10059;59.850;10.454;2023-05-10T05:00:43;10.80;99.90
19799;DHT22;10059;59.850;10.454;2023-05-10T05:03:10;11.00;99.90
19799;DHT22;10059;59.850;10.454;2023-05-10T05:05:37;11.10;99.90
19799;DHT22;10059;59.850;10.454;2023-05-10T05:08:04;11.10;99.90
19799;DHT22;10059;59.850;10.454;2023-05-10T05:10:32;11.10;99.90
19799;DHT22;10059;59.850;10.454;2023-05-10T05:12:59;11.20;99.90
19799;DHT22;10059;59.850;10.454;2023-05-10T05:15:26;11.40;99.90
19799;DHT22;10059;59.850;10.454;2023-05-10T05:17:53;11.40;99.90
19799;DHT22;10059;59.850;10.454;2023-05-10T05:20:20;11.40;99.90
19799;DHT22;10059;59.850;10.454;2023-05-10T05:22:46;11.50;99.90
19799;DHT22;10059;59.850;10.454;2023-05-10T05:25:13;11.70;99.90
19799;DHT22;10059;59.850;10.454;2023-05-10T05:27:42;11.80;99.90
19799;DHT22;10059;59.850;10.454;2023-05-10T05:30:09;12.00;99.90
19799;DHT22;10059;59.850;10.454;2023-05-10T05:32:36;12.10;99.90
19799;DHT22;10059;59.850;10.454;2023-05-10T05:35:04;12.10;99.90
19799;DHT22;10059;59.850;10.454;2023-05-10T05:37:31;12.00;99.90
19799;DHT22;10059;59.850;10.454;2023-05-10T05:39:58;12.10;99.90
19799;DHT22;10059;59.850;10.454;2023-05-10T05:42:26;12.20;99.90
19799;DHT22;10059;59.850;10.454;2023-05-10T05:44:55;12.30;99.90
19799;DHT22;10059;59.850;10.454;2023-05-10T05:47:21;12.30;99.90
19799;DHT22;10059;59.850;10.454;2023-05-10T05:49:48;12.30;99.90
19799;DHT22;10059;59.850;10.454;2023-05-10T05:52:15;12.20;99.90
19799;DHT22;10059;59.850;10.454;2023-05-10T05:54:42;12.40;99.90
19799;DHT22;10059;59.850;10.454;2023-05-10T05:57:09;12.70;99.90
19799;DHT22;10059;59.850;10.454;2023-05-10T05:59:36;12.70;99.90
19799;DHT22;10059;59.850;10.454;2023-05-10T06:02:08;12.70;99.90
19799;DHT22;10059;59.850;10.454;2023-05-10T06:04:35;13.00;99.90
19799;DHT22;10059;59.850;10.454;2023-05-10T06:07:02;13.10;99.90
19799;DHT22;10059;59.850;10.454;2023-05-10T06:09:29;13.30;99.90
19799;DHT22;10059;59.850;10.454;2023-05-10T06:11:56;13.20;99.90
19799;DHT22;10059;59.850;10.454;2023-05-10T06:14:23;13.10;99.90
19799;DHT22;10059;59.850;10.454;2023-05-10T06:16:49;13.00;99.90
19799;DHT22;10059;59.850;10.454;2023-05-10T06:19:17;13.00;99.90
19799;DHT22;10059;59.850;10.454;2023-05-10T06:21:44;13.00;99.90
19799;DHT22;10059;59.850;10.454;2023-05-10T06:24:11;13.10;99.90
19799;DHT22;10059;59.850;10.454;2023-05-10T06:26:38;13.40;99.90
19799;DHT22;10059;59.850;10.454;2023-05-10T06:29:05;13.30;99.90
19799;DHT22;10059;59.850;10.454;2023-05-10T06:31:32;13.30;99.90
19799;DHT22;10059;59.850;10.454;2023-05-10T06:33:59;13.40;99.90
19799;DHT22;10059;59.850;10.454;2023-05-10T06:36:27;13.40;99.90
19799;DHT22;10059;59.850;10.454;2023-05-10T06:38:54;13.40;99.90
19799;DHT22;10059;59.850;10.454;2023-05-10T06:41:20;13.40;99.90
19799;DHT22;10059;59.850;10.454;2023-05-10T06:43:47;13.30;99.90
19799;DHT22;10059;59.850;10.454;2023-05-10T06:46:14;13.30;99.90
19799;DHT22;10059;59.850;10.454;2023-05-10T06:48:41;13.30;99.90
19799;DHT22;10059;59.850;10.454;2023-05-10T06:51:08;13.40;99.90
19799;DHT22;10059;59.850;10.454;2023-05-10T06:53:36;13.40;99.90
19799;DHT22;10059;59.850;10.454;2023-05-10T06:56:03;13.30;99.90
19799;DHT22;10059;59.850;10.454;2023-05-10T06:58:30;13.60;99.90
19799;DHT22;10059;59.850;10.454;2023-05-10T07:01:02;13.80;99.90
19799;DHT22;10059;59.850;10.454;2023-05-10T07:03:29;13.90;99.90
19799;DHT22;10059;59.850;10.454;2023-05-10T07:06:00;14.10;99.90
19799;DHT22;10059;59.850;10.454;2023-05-10T07:08:29;14.40;99.90
19799;DHT22;10059;59.850;10.454;2023-05-10T07:11:01;14.70;99.90
19799;DHT22;10059;59.850;10.454;2023-05-10T07:13:29;14.90;99.90
19799;DHT22;10059;59.850;10.454;2023-05-10T07:15:55;14.70;99.90
19799;DHT22;10059;59.850;10.454;2023-05-10T07:18:22;14.90;99.90
19799;DHT22;10059;59.850;10.454;2023-05-10T07:20:49;15.30;99.90
19799;DHT22;10059;59.850;10.454;2023-05-10T07:23:16;15.70;99.90
19799;DHT22;10059;59.850;10.454;2023-05-10T07:25:45;16.10;99.90
19799;DHT22;10059;59.850;10.454;2023-05-10T07:28:14;15.70;99.90
19799;DHT22;10059;59.850;10.454;2023-05-10T07:30:42;15.90;99.90
19799;DHT22;10059;59.850;10.454;2023-05-10T07:33:09;15.70;99.90
19799;DHT22;10059;59.850;10.454;2023-05-10T07:35:37;15.50;99.90
19799;DHT22;10059;59.850;10.454;2023-05-10T07:38:04;15.90;99.90
19799;DHT22;10059;59.850;10.454;2023-05-10T07:40:31;16.00;99.90
19799;DHT22;10059;59.850;10.454;2023-05-10T07:42:58;16.40;99.90
19799;DHT22;10059;59.850;10.454;2023-05-10T07:45:26;16.60;99.90
19799;DHT22;10059;59.850;10.454;2023-05-10T07:47:53;16.20;99.90
19799;DHT22;10059;59.850;10.454;2023-05-10T07:50:20;16.10;99.90
19799;DHT22;10059;59.850;10.454;2023-05-10T07:52:47;15.50;99.90
19799;DHT22;10059;59.850;10.454;2023-05-10T07:55:14;15.80;99.90
19799;DHT22;10059;59.850;10.454;2023-05-10T07:57:41;16.10;99.90
19799;DHT22;10059;59.850;10.454;2023-05-10T08:00:11;16.00;99.90
19799;DHT22;10059;59.850;10.454;2023-05-10T08:02:40;16.10;99.90
19799;DHT22;10059;59.850;10.454;2023-05-10T08:05:08;16.40;99.90
19799;DHT22;10059;59.850;10.454;2023-05-10T08:07:35;16.20;99.90
19799;DHT22;10059;59.850;10.454;2023-05-10T08:10:02;16.70;99.90
19799;DHT22;10059;59.850;10.454;2023-05-10T08:12:29;17.20;99.90
19799;DHT22;10059;59.850;10.454;2023-05-10T08:14:56;17.60;99.90
19799;DHT22;10059;59.850;10.454;2023-05-10T08:17:23;17.50;99.90
19799;DHT22;10059;59.850;10.454;2023-05-10T08:19:51;17.50;99.90
19799;DHT22;10059;59.850;10.454;2023-05-10T08:22:18;17.10;99.90
19799;DHT22;10059;59.850;10.454;2023-05-10T08:24:44;17.70;99.90
19799;DHT22;10059;59.850;10.454;2023-05-10T08:27:11;17.00;99.90
19799;DHT22;10059;59.850;10.454;2023-05-10T08:29:38;17.50;99.90
19799;DHT22;10059;59.850;10.454;2023-05-10T08:32:05;17.40;99.90
19799;DHT22;10059;59.850;10.454;2023-05-10T08:34:32;17.60;99.90
19799;DHT22;10059;59.850;10.454;2023-05-10T08:37:00;18.20;99.90
19799;DHT22;10059;59.850;10.454;2023-05-10T08:39:27;18.00;99.90
19799;DHT22;10059;59.850;10.454;2023-05-10T08:41:54;18.40;99.90
19799;DHT22;10059;59.850;10.454;2023-05-10T08:44:26;18.30;99.90
19799;DHT22;10059;59.850;10.454;2023-05-10T08:46:53;17.90;99.10
19799;DHT22;10059;59.850;10.454;2023-05-10T08:49:21;17.60;99.90
19799;DHT22;10059;59.850;10.454;2023-05-10T08:51:51;17.70;99.90
19799;DHT22;10059;59.850;10.454;2023-05-10T08:54:20;17.50;99.90
19799;DHT22;10059;59.850;10.454;2023-05-10T08:56:47;17.70;99.90
19799;DHT22;10059;59.850;10.454;2023-05-10T08:59:14;17.10;99.90
19799;DHT22;10059;59.850;10.454;2023-05-10T09:01:42;17.10;99.90
19799;DHT22;10059;59.850;10.454;2023-05-10T09:04:09;18.10;99.90
19799;DHT22;10059;59.850;10.454;2023-05-10T09:06:37;18.20;98.90
19799;DHT22;10059;59.850;10.454;2023-05-10T09:09:05;18.50;99.60
19799;DHT22;10059;59.850;10.454;2023-05-10T09:11:33;18.20;98.20
19799;DHT22;10059;59.850;10.454;2023-05-10T09:14:01;18.20;98.80
19799;DHT22;10059;59.850;10.454;2023-05-10T09:16:28;18.20;99.10
19799;DHT22;10059;59.850;10.454;2023-05-10T09:18:55;18.00;98.90
19799;DHT22;10059;59.850;10.454;2023-05-10T09:21:22;17.90;98.80
19799;DHT22;10059;59.850;10.454;2023-05-10T09:23:49;18.00;99.10
19799;DHT22;10059;59.850;10.454;2023-05-10T09:26:17;19.00;99.50
19799;DHT22;10059;59.850;10.454;2023-05-10T09:28:53;19.30;97.80
19799;DHT22;10059;59.850;10.454;2023-05-10T09:31:20;19.50;96.80
19799;DHT22;10059;59.850;10.454;2023-05-10T09:33:48;20.30;97.90
19799;DHT22;10059;59.850;10.454;2023-05-10T09:36:16;20.20;97.10
19799;DHT22;10059;59.850;10.454;2023-05-10T09:38:47;19.60;95.80
19799;DHT22;10059;59.850;10.454;2023-05-10T09:41:18;19.10;96.80
19799;DHT22;10059;59.850;10.454;2023-05-10T09:43:45;18.90;97.80
19799;DHT22;10059;59.850;10.454;2023-05-10T09:46:14;19.10;96.70
19799;DHT22;10059;59.850;10.454;2023-05-10T09:48:43;18.50;96.90
19799;DHT22;10059;59.850;10.454;2023-05-10T09:51:10;18.80;97.00
19799;DHT22;10059;59.850;10.454;2023-05-10T09:53:37;19.30;97.20
19799;DHT22;10059;59.850;10.454;2023-05-10T09:56:04;19.30;97.00
19799;DHT22;10059;59.850;10.454;2023-05-10T09:58:31;19.40;96.00
19799;DHT22;10059;59.850;10.454;2023-05-10T10:00:58;19.50;97.00
19799;DHT22;10059;59.850;10.454;2023-05-10T10:03:26;19.50;96.30
19799;DHT22;10059;59.850;10.454;2023-05-10T10:05:55;19.90;96.40
19799;DHT22;10059;59.850;10.454;2023-05-10T10:08:22;19.40;95.90
19799;DHT22;10059;59.850;10.454;2023-05-10T10:10:49;19.60;96.50
19799;DHT22;10059;59.850;10.454;2023-05-10T10:13:16;19.50;95.90
19799;DHT22;10059;59.850;10.454;2023-05-10T10:15:43;19.70;96.00
19799;DHT22;10059;59.850;10.454;2023-05-10T10:18:13;19.50;96.00
19799;DHT22;10059;59.850;10.454;2023-05-10T10:20:42;20.10;96.20
19799;DHT22;10059;59.850;10.454;2023-05-10T10:23:09;19.90;95.30
19799;DHT22;10059;59.850;10.454;2023-05-10T10:25:36;20.50;95.70
19799;DHT22;10059;59.850;10.454;2023-05-10T10:28:12;20.40;94.70
19799;DHT22;10059;59.850;10.454;2023-05-10T10:30:43;20.50;94.20
19799;DHT22;10059;59.850;10.454;2023-05-10T10:33:30;20.30;94.60
19799;DHT22;10059;59.850;10.454;2023-05-10T10:36:02;20.90;95.60
19799;DHT22;10059;59.850;10.454;2023-05-10T10:38:37;20.70;93.60
19799;DHT22;10059;59.850;10.454;2023-05-10T10:41:10;20.10;94.10
19799;DHT22;10059;59.850;10.454;2023-05-10T10:43:37;20.30;94.90
19799;DHT22;10059;59.850;10.454;2023-05-10T10:46:11;20.80;95.00
19799;DHT22;10059;59.850;10.454;2023-05-10T10:48:39;20.80;93.70
19799;DHT22;10059;59.850;10.454;2023-05-10T10:51:08;20.80;94.40
19799;DHT22;10059;59.850;10.454;2023-05-10T10:53:34;20.20;94.00
19799;DHT22;10059;59.850;10.454;2023-05-10T10:56:07;20.50;93.40
19799;DHT22;10059;59.850;10.454;2023-05-10T10:58:36;20.80;94.10
19799;DHT22;10059;59.850;10.454;2023-05-10T11:01:14;21.10;93.70
19799;DHT22;10059;59.850;10.454;2023-05-10T11:04:16;21.10;92.40
19799;DHT22;10059;59.850;10.454;2023-05-10T11:06:43;20.50;93.10
19799;DHT22;10059;59.850;10.454;2023-05-10T11:09:11;20.30;93.40
19799;DHT22;10059;59.850;10.454;2023-05-10T11:11:48;20.70;93.30
19799;DHT22;10059;59.850;10.454;2023-05-10T11:14:19;20.40;92.80
19799;DHT22;10059;59.850;10.454;2023-05-10T11:16:46;20.70;93.70
19799;DHT22;10059;59.850;10.454;2023-05-10T11:19:15;20.80;92.10
19799;DHT22;10059;59.850;10.454;2023-05-10T11:21:47;20.50;93.00
19799;DHT22;10059;59.850;10.454;2023-05-10T11:24:15;21.10;93.30
19799;DHT22;10059;59.850;10.454;2023-05-10T11:26:43;20.90;92.20
19799;DHT22;10059;59.850;10.454;2023-05-10T11:29:11;20.40;92.80
19799;DHT22;10059;59.850;10.454;2023-05-10T11:31:42;21.00;93.40
19799;DHT22;10059;59.850;10.454;2023-05-10T11:34:10;21.10;91.90
19799;DHT22;10059;59.850;10.454;2023-05-10T11:36:38;21.00;92.30
19799;DHT22;10059;59.850;10.454;2023-05-10T11:39:06;20.50;92.50
19799;DHT22;10059;59.850;10.454;2023-05-10T11:41:33;20.90;92.50
19799;DHT22;10059;59.850;10.454;2023-05-10T11:44:01;21.40;91.50
19799;DHT22;10059;59.850;10.454;2023-05-10T11:46:28;21.00;91.40
19799;DHT22;10059;59.850;10.454;2023-05-10T11:48:58;21.30;91.50
19799;DHT22;10059;59.850;10.454;2023-05-10T11:51:27;21.70;91.10
19799;DHT22;10059;59.850;10.454;2023-05-10T11:53:55;22.00;90.00
19799;DHT22;10059;59.850;10.454;2023-05-10T11:56:24;21.60;90.60
19799;DHT22;10059;59.850;10.454;2023-05-10T11:58:53;21.10;90.50
19799;DHT22;10059;59.850;10.454;2023-05-10T12:01:21;21.80;91.00
19799;DHT22;10059;59.850;10.454;2023-05-10T12:03:49;22.00;90.10
19799;DHT22;10059;59.850;10.454;2023-05-10T12:06:17;21.90;90.00
19799;DHT22;10059;59.850;10.454;2023-05-10T12:08:45;21.50;87.40
19799;DHT22;10059;59.850;10.454;2023-05-10T12:11:12;21.70;88.40
19799;DHT22;10059;59.850;10.454;2023-05-10T12:13:43;20.90;89.00
19799;DHT22;10059;59.850;10.454;2023-05-10T12:16:16;20.50;89.40
19799;DHT22;10059;59.850;10.454;2023-05-10T12:18:44;20.70;90.50
19799;DHT22;10059;59.850;10.454;2023-05-10T12:21:11;21.80;89.50
19799;DHT22;10059;59.850;10.454;2023-05-10T12:23:39;21.50;87.00
19799;DHT22;10059;59.850;10.454;2023-05-10T12:26:06;20.80;88.40
19799;DHT22;10059;59.850;10.454;2023-05-10T12:28:33;20.70;89.30
19799;DHT22;10059;59.850;10.454;2023-05-10T12:31:02;21.20;90.00
19799;DHT22;10059;59.850;10.454;2023-05-10T12:33:36;21.20;87.90
19799;DHT22;10059;59.850;10.454;2023-05-10T12:36:05;20.70;88.20
19799;DHT22;10059;59.850;10.454;2023-05-10T12:38:33;20.80;87.90
19799;DHT22;10059;59.850;10.454;2023-05-10T12:41:02;21.00;88.40
19799;DHT22;10059;59.850;10.454;2023-05-10T12:43:29;20.80;87.80
19799;DHT22;10059;59.850;10.454;2023-05-10T12:45:56;21.00;88.70
19799;DHT22;10059;59.850;10.454;2023-05-10T12:48:25;21.70;87.90
19799;DHT22;10059;59.850;10.454;2023-05-10T12:50:54;22.00;86.30
19799;DHT22;10059;59.850;10.454;2023-05-10T12:53:21;22.40;87.30
19799;DHT22;10059;59.850;10.454;2023-05-10T12:55:47;21.60;85.30
19799;DHT22;10059;59.850;10.454;2023-05-10T12:58:14;22.00;86.90
19799;DHT22;10059;59.850;10.454;2023-05-10T13:00:41;21.40;85.30
19799;DHT22;10059;59.850;10.454;2023-05-10T13:03:09;21.00;87.40
19799;DHT22;10059;59.850;10.454;2023-05-10T13:05:38;21.60;86.70
19799;DHT22;10059;59.850;10.454;2023-05-10T13:08:05;21.40;86.20
19799;DHT22;10059;59.850;10.454;2023-05-10T13:10:32;21.90;85.60
19799;DHT22;10059;59.850;10.454;2023-05-10T13:12:59;21.60;86.10
19799;DHT22;10059;59.850;10.454;2023-05-10T13:15:26;21.70;84.90
19799;DHT22;10059;59.850;10.454;2023-05-10T13:17:53;20.70;85.00
19799;DHT22;10059;59.850;10.454;2023-05-10T13:20:20;20.90;86.80
19799;DHT22;10059;59.850;10.454;2023-05-10T13:22:49;21.30;86.70
19799;DHT22;10059;59.850;10.454;2023-05-10T13:25:16;21.90;87.90
19799;DHT22;10059;59.850;10.454;2023-05-10T13:27:43;21.30;85.90
19799;DHT22;10059;59.850;10.454;2023-05-10T13:30:10;21.60;86.40
19799;DHT22;10059;59.850;10.454;2023-05-10T13:32:38;22.40;87.40
19799;DHT22;10059;59.850;10.454;2023-05-10T13:35:05;22.60;85.80
19799;DHT22;10059;59.850;10.454;2023-05-10T13:37:32;21.20;84.40
19799;DHT22;10059;59.850;10.454;2023-05-10T13:40:02;21.50;86.40
19799;DHT22;10059;59.850;10.454;2023-05-10T13:42:29;21.90;85.90
19799;DHT22;10059;59.850;10.454;2023-05-10T13:44:57;21.30;84.40
19799;DHT22;10059;59.850;10.454;2023-05-10T13:47:24;21.50;84.90
19799;DHT22;10059;59.850;10.454;2023-05-10T13:49:50;20.90;84.90
19799;DHT22;10059;59.850;10.454;2023-05-10T13:52:17;20.50;86.00
19799;DHT22;10059;59.850;10.454;2023-05-10T13:54:44;20.90;86.10
19799;DHT22;10059;59.850;10.454;2023-05-10T13:57:12;21.10;85.20
19799;DHT22;10059;59.850;10.454;2023-05-10T13:59:42;21.40;85.60
19799;DHT22;10059;59.850;10.454;2023-05-10T14:02:08;21.50;85.00
19799;DHT22;10059;59.850;10.454;2023-05-10T14:04:36;21.10;83.90
19799;DHT22;10059;59.850;10.454;2023-05-10T14:07:03;21.30;85.00
19799;DHT22;10059;59.850;10.454;2023-05-10T14:09:30;21.50;82.90
19799;DHT22;10059;59.850;10.454;2023-05-10T14:11:57;21.30;82.90
19799;DHT22;10059;59.850;10.454;2023-05-10T14:14:25;21.30;82.70
19799;DHT22;10059;59.850;10.454;2023-05-10T14:16:53;21.80;84.20
19799;DHT22;10059;59.850;10.454;2023-05-10T14:19:20;21.90;83.00
19799;DHT22;10059;59.850;10.454;2023-05-10T14:21:47;21.90;82.50
19799;DHT22;10059;59.850;10.454;2023-05-10T14:24:14;21.10;82.60
19799;DHT22;10059;59.850;10.454;2023-05-10T14:26:40;21.20;84.40
19799;DHT22;10059;59.850;10.454;2023-05-10T14:29:07;21.10;83.30
19799;DHT22;10059;59.850;10.454;2023-05-10T14:31:35;21.60;82.80
19799;DHT22;10059;59.850;10.454;2023-05-10T14:34:02;21.10;82.80
19799;DHT22;10059;59.850;10.454;2023-05-10T14:36:29;21.00;83.30
19799;DHT22;10059;59.850;10.454;2023-05-10T14:38:56;21.80;83.50
19799;DHT22;10059;59.850;10.454;2023-05-10T14:41:23;21.40;82.30
19799;DHT22;10059;59.850;10.454;2023-05-10T14:43:50;21.70;82.70
19799;DHT22;10059;59.850;10.454;2023-05-10T14:46:18;21.70;81.70
19799;DHT22;10059;59.850;10.454;2023-05-10T14:48:46;21.80;81.30
19799;DHT22;10059;59.850;10.454;2023-05-10T14:51:13;21.40;81.60
19799;DHT22;10059;59.850;10.454;2023-05-10T14:53:40;21.60;83.20
19799;DHT22;10059;59.850;10.454;2023-05-10T14:56:07;21.20;83.20
19799;DHT22;10059;59.850;10.454;2023-05-10T14:58:34;20.60;83.80
19799;DHT22;10059;59.850;10.454;2023-05-10T15:01:00;21.40;83.30
19799;DHT22;10059;59.850;10.454;2023-05-10T15:03:27;21.00;83.90
19799;DHT22;10059;59.850;10.454;2023-05-10T15:05:56;21.50;84.40
19799;DHT22;10059;59.850;10.454;2023-05-10T15:08:23;21.30;82.50
19799;DHT22;10059;59.850;10.454;2023-05-10T15:10:50;21.30;82.90
19799;DHT22;10059;59.850;10.454;2023-05-10T15:13:17;21.30;83.50
19799;DHT22;10059;59.850;10.454;2023-05-10T15:15:44;21.30;84.70
19799;DHT22;10059;59.850;10.454;2023-05-10T15:18:11;21.40;84.50
19799;DHT22;10059;59.850;10.454;2023-05-10T15:20:38;21.60;84.20
19799;DHT22;10059;59.850;10.454;2023-05-10T15:23:06;21.50;83.90
19799;DHT22;10059;59.850;10.454;2023-05-10T15:25:33;21.50;83.80
19799;DHT22;10059;59.850;10.454;2023-05-10T15:28:03;21.10;82.70
19799;DHT22;10059;59.850;10.454;2023-05-10T15:30:30;21.00;83.50